Time;durP1;ratioP1;P1;durP2;ratioP2;P2;SDS_P1;SDS_P2;PMS_P1;PMS_P2;Temp;Humidity;BMP_temperature;BMP_pressure;BME280_temperature;BME280_humidity;BME280_pressure;Samples;Min_cycle;Max_cycle;Signal;HPM_P1;HPM_P2
2021/10/09 00:02:18;;;;;;;52.38;33.83;;;10.80;90.60;;;;;;5058079;28;20020;-52
2021/10/09 00:04:44;;;;;;;57.80;33.55;;;10.80;90.70;;;;;;5076005;28;20059;-48
2021/10/09 00:07:10;;;;;;;55.35;32.83;;;10.80;90.90;;;;;;5058198;28;20039;-48
2021/10/09 00:09:36;;;;;;;52.75;33.22;;;10.80;90.80;;;;;;5076234;28;20020;-48
2021/10/09 00:12:01;;;;;;;52.72;31.27;;;10.70;90.80;;;;;;5076056;28;20017;-47
2021/10/09 00:14:27;;;;;;;49.55;30.27;;;10.70;90.80;;;;;;5075821;28;20021;-49
2021/10/09 00:16:53;;;;;;;52.00;33.15;;;10.60;91.10;;;;;;5057834;28;20536;-49
2021/10/09 00:19:19;;;;;;;53.28;31.77;;;10.60;91.30;;;;;;5075745;28;20473;-47
2021/10/09 00:21:45;;;;;;;50.00;30.17;;;10.50;91.50;;;;;;5075864;28;20028;-47
2021/10/09 00:24:15;;;;;;;54.05;33.15;;;10.50;91.50;;;;;;5076766;28;20021;-47
2021/10/09 00:26:41;;;;;;;56.15;32.53;;;10.50;91.60;;;;;;5075765;28;20024;-47
2021/10/09 00:29:08;;;;;;;56.92;33.45;;;10.40;91.40;;;;;;5076561;28;20036;-46
2021/10/09 00:31:33;;;;;;;48.35;32.20;;;10.40;91.20;;;;;;5075946;28;20103;-51
2021/10/09 00:33:59;;;;;;;58.35;34.70;;;10.30;91.30;;;;;;5076083;28;20078;-50
2021/10/09 00:36:25;;;;;;;55.33;32.65;;;10.30;91.60;;;;;;5076048;28;20024;-50
2021/10/09 00:38:51;;;;;;;56.75;34.08;;;10.30;91.50;;;;;;5076674;28;20034;-49
2021/10/09 00:41:17;;;;;;;53.60;32.58;;;10.30;91.50;;;;;;5077072;28;20031;-49
2021/10/09 00:43:42;;;;;;;56.80;33.15;;;10.20;91.60;;;;;;5075854;28;20025;-49
2021/10/09 00:46:09;;;;;;;48.90;32.58;;;10.20;91.90;;;;;;5057323;28;20032;-46
2021/10/09 00:48:35;;;;;;;56.45;32.65;;;10.20;91.90;;;;;;5075592;28;20419;-48
2021/10/09 00:51:03;;;;;;;54.53;32.88;;;10.20;91.80;;;;;;5057407;28;20025;-47
2021/10/09 00:53:30;;;;;;;58.20;34.55;;;10.00;91.90;;;;;;5075318;28;20024;-48
2021/10/09 00:55:56;;;;;;;51.83;32.22;;;10.10;92.10;;;;;;5075264;28;20031;-48
2021/10/09 00:58:23;;;;;;;58.50;33.28;;;10.10;92.20;;;;;;5075250;28;20031;-51
2021/10/09 01:00:49;;;;;;;59.25;34.53;;;9.90;92.10;;;;;;5074989;28;20063;-50
2021/10/09 01:03:15;;;;;;;54.75;32.13;;;9.80;92.20;;;;;;5075201;28;20025;-48
2021/10/09 01:05:41;;;;;;;55.63;34.72;;;9.80;92.40;;;;;;5074640;28;20514;-47
2021/10/09 01:08:07;;;;;;;56.50;34.38;;;9.80;92.60;;;;;;5074725;28;20085;-47
2021/10/09 01:10:34;;;;;;;50.50;32.05;;;9.80;92.70;;;;;;5074658;28;20078;-47
2021/10/09 01:13:03;;;;;;;60.53;35.05;;;9.70;92.80;;;;;;5074937;28;20024;-48
2021/10/09 01:15:32;;;;;;;58.50;35.88;;;9.70;93.00;;;;;;5075029;28;20499;-51
2021/10/09 01:18:06;;;;;;;52.65;32.17;;;9.70;92.90;;;;;;5056705;28;20028;-46
2021/10/09 01:20:52;;;;;;;56.47;31.67;;;9.70;92.90;;;;;;5056433;28;20115;-47
2021/10/09 01:23:19;;;;;;;54.95;33.75;;;9.70;93.00;;;;;;5074662;28;20520;-47
2021/10/09 01:25:45;;;;;;;51.92;32.15;;;9.60;92.90;;;;;;5074258;28;20153;-48
2021/10/09 01:28:11;;;;;;;62.75;35.80;;;9.50;92.90;;;;;;5074468;28;20025;-48
2021/10/09 01:30:37;;;;;;;58.83;33.05;;;9.50;93.10;;;;;;5074153;28;20169;-50
2021/10/09 01:33:03;;;;;;;58.92;33.10;;;9.50;93.10;;;;;;5074316;28;20074;-48
2021/10/09 01:35:29;;;;;;;55.83;33.08;;;9.50;93.00;;;;;;5074285;28;20024;-47
2021/10/09 01:37:55;;;;;;;60.38;35.00;;;9.60;93.20;;;;;;5074196;28;20112;-47
2021/10/09 01:40:21;;;;;;;65.03;36.00;;;9.50;92.90;;;;;;5056937;28;20111;-47
2021/10/09 01:42:47;;;;;;;59.97;35.83;;;9.60;93.00;;;;;;5074602;28;20025;-47
2021/10/09 01:45:12;;;;;;;56.63;33.78;;;9.70;92.60;;;;;;5074520;28;20483;-48
2021/10/09 01:47:42;;;;;;;59.45;33.78;;;9.70;92.10;;;;;;5074205;28;20029;-48
2021/10/09 01:50:09;;;;;;;56.73;34.50;;;9.50;92.20;;;;;;5074395;28;20047;-48
2021/10/09 01:52:35;;;;;;;55.88;33.15;;;9.50;92.50;;;;;;5074157;28;20365;-48
2021/10/09 01:55:01;;;;;;;60.17;33.42;;;9.50;92.70;;;;;;5074535;28;20029;-47
2021/10/09 01:57:27;;;;;;;65.30;35.67;;;9.50;92.70;;;;;;5055404;28;20031;-48
2021/10/09 01:59:53;;;;;;;63.90;36.30;;;9.50;92.70;;;;;;5074009;28;20432;-48
2021/10/09 02:02:18;;;;;;;68.55;35.45;;;9.50;92.40;;;;;;5056024;28;20017;-47
2021/10/09 02:04:44;;;;;;;65.30;37.63;;;9.60;92.40;;;;;;5073649;28;20099;-52
2021/10/09 02:07:15;;;;;;;67.95;37.47;;;9.60;92.20;;;;;;5073873;28;20023;-48
2021/10/09 02:09:40;;;;;;;77.03;41.13;;;9.70;92.00;;;;;;5073914;28;20024;-53
2021/10/09 02:12:06;;;;;;;70.40;38.10;;;9.60;91.90;;;;;;5073707;28;20534;-48
2021/10/09 02:14:46;;;;;;;67.07;37.78;;;9.70;91.90;;;;;;5055727;28;20032;-47
2021/10/09 02:17:31;;;;;;;72.57;39.28;;;9.70;91.70;;;;;;5073920;28;20017;-48
2021/10/09 02:25:45;;;;;;;68.10;39.47;;;9.50;91.80;;;;;;5035836;28;20037;-49
2021/10/09 02:28:20;;;;;;;70.60;37.40;;;9.50;92.00;;;;;;5073435;28;20123;-49
2021/10/09 02:30:47;;;;;;;65.85;36.95;;;9.40;91.90;;;;;;5073619;28;20024;-47
2021/10/09 02:33:13;;;;;;;72.72;41.00;;;9.40;92.20;;;;;;5055319;28;20387;-48
2021/10/09 02:35:40;;;;;;;73.97;38.45;;;9.40;91.90;;;;;;5073559;28;20020;-46
2021/10/09 02:38:07;;;;;;;78.95;39.08;;;9.30;92.10;;;;;;5073175;28;20396;-47
2021/10/09 02:40:43;;;;;;;68.22;39.80;;;9.30;92.30;;;;;;5073586;28;20020;-46
2021/10/09 02:43:10;;;;;;;64.20;35.42;;;9.20;92.30;;;;;;5073383;28;20020;-47
2021/10/09 02:45:35;;;;;;;64.07;35.42;;;9.20;92.50;;;;;;5073034;28;20078;-47
2021/10/09 02:48:03;;;;;;;61.67;36.13;;;9.20;92.60;;;;;;5073093;28;20119;-48
2021/10/09 02:50:30;;;;;;;59.80;36.38;;;9.20;92.60;;;;;;5072941;28;20025;-52
2021/10/09 02:52:57;;;;;;;61.25;36.63;;;9.10;92.60;;;;;;5073313;28;20025;-48
2021/10/09 02:55:23;;;;;;;62.88;35.28;;;9.10;92.70;;;;;;5055047;28;20120;-48
2021/10/09 02:57:49;;;;;;;60.38;38.00;;;9.00;92.80;;;;;;5072952;28;20122;-48
2021/10/09 03:00:16;;;;;;;66.20;37.03;;;9.00;92.90;;;;;;5073293;28;20093;-47
2021/10/09 03:02:42;;;;;;;62.17;37.22;;;9.00;93.00;;;;;;5073000;28;20024;-48
2021/10/09 03:05:10;;;;;;;76.97;38.90;;;8.90;93.00;;;;;;5072716;28;20102;-48
2021/10/09 03:07:36;;;;;;;64.03;36.03;;;8.90;93.10;;;;;;5072868;28;20032;-49
2021/10/09 03:10:03;;;;;;;63.85;36.67;;;8.90;93.20;;;;;;5072970;28;20360;-47
2021/10/09 03:12:29;;;;;;;68.68;37.55;;;8.80;93.20;;;;;;5073123;28;20013;-47
2021/10/09 03:14:54;;;;;;;65.38;38.30;;;8.90;93.30;;;;;;5072807;28;20032;-49
2021/10/09 03:17:20;;;;;;;68.13;36.78;;;8.80;93.30;;;;;;5054862;28;20497;-52
2021/10/09 03:19:46;;;;;;;71.93;39.55;;;8.90;93.40;;;;;;5072642;28;20032;-48
2021/10/09 03:22:11;;;;;;;67.68;36.10;;;8.80;93.20;;;;;;5072704;28;20025;-48
2021/10/09 03:24:37;;;;;;;78.38;39.55;;;8.80;93.30;;;;;;5072814;28;20031;-47
2021/10/09 03:27:03;;;;;;;67.38;38.13;;;8.80;93.30;;;;;;5055554;28;20044;-49
2021/10/09 03:29:28;;;;;;;80.43;40.17;;;8.80;93.40;;;;;;5072761;28;20491;-49
2021/10/09 03:31:54;;;;;;;75.88;40.30;;;8.80;93.50;;;;;;5054734;28;20037;-48
2021/10/09 03:34:20;;;;;;;71.00;39.70;;;8.80;93.60;;;;;;5072808;28;20025;-48
2021/10/09 03:36:46;;;;;;;70.60;40.20;;;8.80;93.50;;;;;;5072813;28;20487;-50
2021/10/09 03:39:15;;;;;;;76.80;40.33;;;8.80;93.50;;;;;;5072708;28;20091;-50
2021/10/09 03:41:45;;;;;;;69.40;39.25;;;8.70;93.60;;;;;;5073423;28;20479;-48
2021/10/09 03:44:11;;;;;;;73.00;40.17;;;8.70;93.70;;;;;;5072921;28;20051;-50
2021/10/09 03:46:44;;;;;;;75.90;40.22;;;8.70;93.80;;;;;;5072597;28;20111;-51
2021/10/09 03:49:23;;;;;;;67.88;39.50;;;8.70;93.90;;;;;;5038930;28;20103;-48
2021/10/09 03:54:32;;;;;;;74.22;41.28;;;8.70;93.80;;;;;;5072726;28;20024;-48
2021/10/09 03:56:58;;;;;;;79.03;43.72;;;8.70;93.80;;;;;;5072522;28;20461;-47
2021/10/09 03:59:23;;;;;;;77.65;42.15;;;8.80;93.90;;;;;;5072651;28;20078;-48
2021/10/09 04:01:49;;;;;;;72.68;41.22;;;8.70;93.80;;;;;;5072279;28;20062;-49
2021/10/09 04:04:15;;;;;;;82.68;45.85;;;8.70;93.70;;;;;;5072342;28;20469;-49
2021/10/09 04:06:40;;;;;;;71.13;39.47;;;8.60;93.70;;;;;;5072269;28;20028;-48
2021/10/09 04:09:06;;;;;;;80.22;43.38;;;8.60;93.80;;;;;;5054250;28;20041;-50
2021/10/09 04:11:31;;;;;;;77.65;43.88;;;8.60;93.80;;;;;;5072475;28;20067;-48
2021/10/09 04:13:57;;;;;;;80.57;44.60;;;8.80;93.90;;;;;;5054280;28;20388;-47
2021/10/09 04:16:23;;;;;;;86.00;44.90;;;8.70;93.50;;;;;;5072458;28;20016;-48
2021/10/09 04:18:48;;;;;;;80.82;43.58;;;8.70;93.50;;;;;;5072071;28;20502;-48
2021/10/09 04:21:14;;;;;;;80.55;42.08;;;8.60;93.30;;;;;;5074837;28;20024;-47
2021/10/09 04:23:39;;;;;;;78.45;40.97;;;8.50;93.40;;;;;;5076019;28;20453;-47
2021/10/09 04:26:06;;;;;;;81.78;44.08;;;8.60;93.50;;;;;;5075758;28;20463;-49
2021/10/09 04:28:34;;;;;;;82.10;43.80;;;8.60;93.70;;;;;;5075354;28;20109;-47
2021/10/09 04:31:00;;;;;;;74.88;42.47;;;8.60;93.30;;;;;;5075862;28;20024;-49
2021/10/09 04:33:26;;;;;;;87.63;45.65;;;8.50;93.30;;;;;;5075468;28;20028;-48
2021/10/09 04:35:52;;;;;;;84.97;42.95;;;8.50;93.60;;;;;;5075844;28;20354;-48
2021/10/09 04:38:17;;;;;;;82.82;42.90;;;8.50;93.70;;;;;;5075817;28;20025;-48
2021/10/09 04:40:43;;;;;;;82.35;47.13;;;8.50;93.60;;;;;;5057525;28;20124;-47
2021/10/09 04:43:09;;;;;;;75.97;42.13;;;8.40;93.50;;;;;;5075638;28;20033;-47
2021/10/09 04:45:34;;;;;;;78.60;41.25;;;8.30;93.60;;;;;;5075582;28;20037;-48
2021/10/09 04:48:04;;;;;;;76.05;42.30;;;8.30;93.80;;;;;;5075358;28;20508;-50
2021/10/09 04:50:30;;;;;;;80.00;42.75;;;8.30;93.80;;;;;;5075951;28;20032;-48
2021/10/09 04:52:56;;;;;;;83.70;42.75;;;8.20;93.90;;;;;;5057162;28;20036;-46
2021/10/09 04:55:22;;;;;;;76.28;43.67;;;8.10;94.00;;;;;;5075254;28;20109;-47
2021/10/09 04:57:48;;;;;;;81.80;40.80;;;8.10;94.10;;;;;;5075404;28;20020;-51
2021/10/09 05:00:14;;;;;;;87.78;41.13;;;8.00;94.20;;;;;;5075230;28;20031;-48
2021/10/09 05:02:39;;;;;;;70.68;39.85;;;8.10;94.20;;;;;;5075410;28;20039;-48
2021/10/09 05:05:05;;;;;;;73.93;40.13;;;8.10;94.30;;;;;;5074980;28;20052;-47
2021/10/09 05:07:31;;;;;;;84.90;43.17;;;8.00;94.30;;;;;;5075295;28;20056;-51
2021/10/09 05:09:56;;;;;;;74.20;40.40;;;8.00;94.40;;;;;;5075132;28;20099;-47
2021/10/09 05:12:22;;;;;;;76.10;40.25;;;8.00;94.40;;;;;;5057317;28;20044;-49
2021/10/09 05:14:48;;;;;;;84.15;42.92;;;8.00;94.40;;;;;;5075012;28;20021;-48
2021/10/09 05:17:13;;;;;;;78.40;42.78;;;7.90;94.40;;;;;;5074829;28;20024;-48
2021/10/09 05:19:39;;;;;;;84.45;43.08;;;8.00;94.50;;;;;;5074868;28;20031;-52
2021/10/09 05:22:04;;;;;;;76.10;40.08;;;7.90;94.50;;;;;;5074953;28;20028;-49
2021/10/09 05:24:30;;;;;;;83.00;41.22;;;7.80;94.50;;;;;;5074674;28;20503;-48
2021/10/09 05:26:57;;;;;;;86.75;44.70;;;7.80;94.60;;;;;;5056717;28;20028;-47
2021/10/09 05:29:23;;;;;;;88.93;45.20;;;7.90;94.70;;;;;;5074501;28;20029;-48
2021/10/09 05:31:52;;;;;;;91.30;45.30;;;8.00;94.60;;;;;;5074271;28;20032;-47
2021/10/09 05:34:18;;;;;;;82.60;43.63;;;7.90;94.50;;;;;;5075251;28;20329;-51
2021/10/09 05:36:43;;;;;;;77.63;40.65;;;7.80;94.50;;;;;;5074316;28;20096;-47
2021/10/09 05:39:09;;;;;;;82.68;44.78;;;7.80;94.50;;;;;;5074687;28;20051;-48
2021/10/09 05:41:35;;;;;;;84.63;42.33;;;7.80;94.60;;;;;;5074315;28;20120;-47
2021/10/09 05:44:01;;;;;;;76.30;41.95;;;7.80;94.60;;;;;;5074969;28;20024;-49
2021/10/09 05:46:26;;;;;;;92.95;46.75;;;7.80;94.60;;;;;;5056195;28;20020;-47
2021/10/09 05:48:53;;;;;;;81.78;44.50;;;7.80;94.60;;;;;;5074696;28;20079;-50
2021/10/09 05:54:19;;;;;;;87.47;42.67;;;7.90;94.70;;;;;;5050643;28;20021;-48
2021/10/09 05:56:57;;;;;;;94.18;47.50;;;8.10;94.60;;;;;;5074352;28;20023;-47
2021/10/09 06:02:22;;;;;;;96.50;46.35;;;8.10;93.90;;;;;;5073980;28;20411;-48
2021/10/09 06:45:56;;;;;;;78.95;41.78;;;8.40;92.60;;;;;;5074162;28;20035;-50
2021/10/09 06:59:26;;;;;;;77.05;42.58;;;8.70;92.10;;;;;;5073476;28;20062;-48
2021/10/09 06:59:32;;;;;;;72.47;38.10;;;8.70;92.00;;;;;;5073998;28;20035;-50
2021/10/09 07:01:58;;;;;;;65.97;38.70;;;8.70;91.90;;;;;;5073486;28;20028;-47
2021/10/09 07:04:24;;;;;;;73.22;41.03;;;8.60;92.00;;;;;;5073610;28;20070;-51
2021/10/09 07:06:52;;;;;;;67.45;40.22;;;8.80;91.90;;;;;;5074244;28;20021;-47
2021/10/09 07:09:17;;;;;;;69.55;39.45;;;8.90;91.50;;;;;;5073652;28;20032;-47
2021/10/09 07:11:43;;;;;;;71.72;40.22;;;9.00;91.00;;;;;;5054828;28;20111;-51
2021/10/09 07:14:09;;;;;;;68.82;38.50;;;8.90;90.60;;;;;;5072427;28;20044;-51
2021/10/09 07:16:34;;;;;;;65.68;37.78;;;9.00;90.60;;;;;;5072565;28;20099;-47
2021/10/09 07:19:01;;;;;;;73.55;37.58;;;9.10;90.30;;;;;;5073020;28;20052;-47
2021/10/09 07:21:27;;;;;;;66.50;37.50;;;9.10;90.30;;;;;;5072528;28;20020;-48
2021/10/09 07:23:53;;;;;;;65.30;36.90;;;9.20;89.90;;;;;;5054566;28;20035;-49
2021/10/09 07:26:19;;;;;;;70.65;40.30;;;9.30;89.70;;;;;;5072879;28;20499;-48
2021/10/09 07:28:44;;;;;;;61.25;37.35;;;9.30;89.50;;;;;;5072648;28;20032;-47
2021/10/09 07:31:10;;;;;;;63.05;35.17;;;9.40;89.30;;;;;;5054179;28;20060;-49
2021/10/09 07:33:36;;;;;;;64.60;35.40;;;9.50;88.80;;;;;;5072699;28;20108;-49
2021/10/09 07:36:02;;;;;;;64.53;38.72;;;9.40;88.70;;;;;;5072545;28;20032;-48
2021/10/09 07:38:28;;;;;;;59.55;37.20;;;9.50;88.50;;;;;;5072396;28;20096;-50
2021/10/09 07:40:54;;;;;;;59.47;35.67;;;9.60;88.00;;;;;;5072537;28;20095;-50
2021/10/09 07:43:20;;;;;;;64.55;35.80;;;9.70;87.70;;;;;;5072850;28;20029;-49
2021/10/09 07:45:46;;;;;;;57.50;33.28;;;9.80;87.40;;;;;;5072826;28;20036;-48
2021/10/09 07:48:11;;;;;;;54.03;31.25;;;10.00;87.10;;;;;;5072862;28;20020;-53
2021/10/09 07:50:37;;;;;;;52.30;32.55;;;9.90;86.70;;;;;;5072351;28;20108;-52
2021/10/09 07:53:03;;;;;;;51.05;32.58;;;10.00;86.80;;;;;;5072278;28;20020;-49
2021/10/09 07:55:29;;;;;;;56.25;32.65;;;9.90;87.00;;;;;;5074796;28;20016;-48
2021/10/09 07:57:54;;;;;;;51.63;31.95;;;10.20;86.60;;;;;;5076337;28;20456;-49
2021/10/09 08:00:20;;;;;;;54.95;30.92;;;10.20;86.10;;;;;;5076297;28;20488;-49
2021/10/09 08:02:50;;;;;;;44.58;29.55;;;10.30;85.80;;;;;;5076236;28;20151;-48
2021/10/09 08:05:17;;;;;;;50.08;28.30;;;10.90;84.70;;;;;;5075819;28;20072;-48
2021/10/09 08:07:43;;;;;;;41.97;25.48;;;11.50;81.90;;;;;;5075962;28;20033;-48
2021/10/09 08:10:09;;;;;;;46.40;25.95;;;11.40;81.50;;;;;;5076066;28;20051;-48
2021/10/09 08:12:34;;;;;;;52.50;29.30;;;11.40;81.80;;;;;;5075944;28;20150;-48
2021/10/09 08:15:00;;;;;;;38.85;24.02;;;12.20;80.00;;;;;;5075868;28;20437;-47
2021/10/09 08:17:26;;;;;;;38.50;24.20;;;12.20;79.20;;;;;;5075610;28;20523;-48
2021/10/09 08:19:53;;;;;;;40.35;23.63;;;12.80;77.10;;;;;;5075799;28;20068;-47
2021/10/09 08:22:21;;;;;;;36.42;24.30;;;12.90;76.40;;;;;;5057914;28;20091;-48
2021/10/09 08:24:58;;;;;;;41.42;24.60;;;13.20;75.40;;;;;;5075882;28;20480;-50
2021/10/09 08:27:46;;;;;;;35.50;23.35;;;13.50;73.40;;;;;;5076027;28;20105;-47
2021/10/09 08:40:59;;;;;;;32.80;21.63;;;14.00;72.30;;;;;;5075711;28;20035;-48
2021/10/09 08:43:25;;;;;;;30.08;20.95;;;14.80;69.30;;;;;;5075257;28;20032;-49
2021/10/09 08:45:51;;;;;;;32.65;22.00;;;14.60;68.60;;;;;;5075396;28;20468;-49
2021/10/09 08:48:17;;;;;;;38.15;24.65;;;14.30;70.00;;;;;;5074943;28;20048;-48
2021/10/09 08:50:45;;;;;;;38.17;24.15;;;14.20;68.70;;;;;;5075032;28;20376;-48
2021/10/09 08:53:11;;;;;;;38.53;22.60;;;14.30;70.00;;;;;;5074903;28;20059;-47
2021/10/09 08:55:45;;;;;;;39.95;23.88;;;14.80;67.90;;;;;;5075140;28;20134;-50
2021/10/09 08:58:32;;;;;;;37.50;23.02;;;14.80;68.40;;;;;;5056744;28;20356;-49
2021/10/09 09:01:18;;;;;;;39.15;22.17;;;15.10;67.30;;;;;;5074444;28;20032;-49
2021/10/09 09:04:04;;;;;;;30.60;20.33;;;15.40;65.20;;;;;;5075266;28;20349;-49
2021/10/09 09:07:31;;;;;;;32.53;20.65;;;15.30;65.50;;;;;;5074240;28;20449;-48
2021/10/09 09:37:43;;;;;;;25.83;17.63;;;16.80;58.10;;;;;;5074309;28;20036;-48
2021/10/09 09:40:12;;;;;;;27.30;20.13;;;16.70;60.00;;;;;;5074081;28;20017;-53
2021/10/09 09:42:45;;;;;;;33.72;18.33;;;16.50;59.00;;;;;;5074146;28;20016;-50
2021/10/09 09:45:18;;;;;;;26.17;17.95;;;16.20;59.60;;;;;;5074267;28;20100;-51
2021/10/09 09:47:43;;;;;;;33.83;18.40;;;16.60;60.00;;;;;;5074182;28;20044;-51
2021/10/09 09:50:11;;;;;;;29.92;19.00;;;17.00;57.90;;;;;;5073990;28;20033;-49
2021/10/09 09:52:39;;;;;;;36.92;21.17;;;17.40;55.90;;;;;;5074090;28;20099;-49
2021/10/09 09:55:07;;;;;;;29.83;18.90;;;17.90;55.60;;;;;;5073920;28;20146;-49
2021/10/09 09:57:35;;;;;;;29.08;18.60;;;18.60;53.10;;;;;;5055152;28;20524;-49
2021/10/09 10:00:03;;;;;;;27.80;19.08;;;18.40;53.60;;;;;;5073211;28;20032;-49
2021/10/09 10:02:30;;;;;;;27.42;18.50;;;18.60;52.70;;;;;;5055502;28;20024;-48
2021/10/09 10:05:01;;;;;;;25.75;16.85;;;18.50;53.30;;;;;;5073103;28;20059;-49
2021/10/09 10:07:28;;;;;;;27.42;17.42;;;18.90;51.80;;;;;;5073050;28;20376;-49
2021/10/09 10:09:53;;;;;;;33.03;20.25;;;18.80;51.90;;;;;;5072705;28;20090;-52
2021/10/09 10:12:19;;;;;;;30.98;18.00;;;18.50;53.40;;;;;;5054620;28;20489;-48
2021/10/09 10:14:47;;;;;;;24.23;16.90;;;18.10;54.20;;;;;;5073144;28;20044;-50
2021/10/09 10:17:13;;;;;;;24.77;17.63;;;18.50;52.50;;;;;;5055019;28;20046;-49
2021/10/09 10:19:50;;;;;;;31.05;17.05;;;19.10;51.80;;;;;;5072924;28;20028;-49
2021/10/09 10:22:31;;;;;;;27.17;18.10;;;18.60;52.10;;;;;;5073336;28;20055;-51
2021/10/09 10:24:57;;;;;;;21.70;16.35;;;18.90;51.70;;;;;;5073370;28;20151;-47
2021/10/09 10:27:34;;;;;;;23.73;16.08;;;18.70;52.30;;;;;;5073012;28;20104;-48
2021/10/09 10:30:15;;;;;;;25.60;17.33;;;18.80;52.20;;;;;;5055196;28;20067;-51
2021/10/09 10:32:46;;;;;;;23.95;16.08;;;18.80;51.80;;;;;;5072788;28;20028;-47
2021/10/09 10:35:30;;;;;;;27.05;16.85;;;18.70;52.30;;;;;;5072681;28;20012;-51
2021/10/09 10:38:04;;;;;;;22.08;15.70;;;19.30;50.00;;;;;;5072625;28;20025;-52
2021/10/09 10:41:01;;;;;;;29.50;16.35;;;18.80;51.40;;;;;;5072724;28;20380;-52
2021/10/09 10:46:44;;;;;;;23.45;15.30;;;18.80;51.90;;;;;;5072751;28;20036;-48
2021/10/09 10:52:15;;;;;;;20.13;15.07;;;19.60;49.10;;;;;;5072779;28;20425;-51
2021/10/09 10:54:38;;;;;;;22.75;15.55;;;;;;;;;;5072555;28;20024;-49
2021/10/09 10:57:24;;;;;;;21.13;15.70;;;20.30;47.60;;;;;;5054321;28;20028;-49
2021/10/09 10:59:54;;;;;;;25.73;16.17;;;20.70;45.90;;;;;;5072942;28;20507;-50
2021/10/09 11:02:21;;;;;;;;;;;20.30;47.30;;;;;;5073065;28;20078;-50
2021/10/09 11:04:53;;;;;;;25.75;15.27;;;20.30;48.00;;;;;;5072128;28;20375;-50
2021/10/09 11:07:23;;;;;;;25.05;16.10;;;20.00;48.30;;;;;;5072394;28;20060;-48
2021/10/09 11:09:50;;;;;;;22.02;16.35;;;19.30;50.20;;;;;;5072851;28;20054;-48
2021/10/09 11:12:20;;;;;;;27.23;17.13;;;20.00;48.30;;;;;;5054229;28;20040;-48
2021/10/09 11:14:46;;;;;;;20.17;14.90;;;20.00;47.80;;;;;;5071774;28;20056;-52
2021/10/09 11:17:11;;;;;;;21.33;15.82;;;19.60;48.50;;;;;;5072078;28;20381;-48
2021/10/09 11:19:50;;;;;;;21.92;14.98;;;19.90;48.20;;;;;;5072312;28;20350;-48
2021/10/09 11:22:20;;;;;;;31.42;16.05;;;19.90;49.40;;;;;;5071731;28;20036;-48
2021/10/09 11:24:47;;;;;;;19.33;14.07;;;20.50;48.60;;;;;;5071666;28;20036;-48
2021/10/09 11:27:14;;;;;;;23.38;15.50;;;20.20;49.00;;;;;;5053770;28;20435;-51
2021/10/09 11:29:41;;;;;;;25.98;15.23;;;20.00;48.80;;;;;;5074268;28;20020;-51
2021/10/09 11:32:09;;;;;;;21.42;14.77;;;19.90;48.90;;;;;;5076482;28;20036;-52
2021/10/09 11:34:49;;;;;;;21.40;13.93;;;19.40;49.90;;;;;;5076163;28;20048;-48
2021/10/09 11:37:15;;;;;;;28.95;16.85;;;19.50;49.70;;;;;;5076041;28;20025;-48
2021/10/09 11:39:54;;;;;;;23.60;13.75;;;19.90;49.10;;;;;;5057507;28;20486;-49
2021/10/09 11:42:23;;;;;;;22.75;15.35;;;19.80;49.60;;;;;;5075915;28;20458;-48
2021/10/09 11:45:06;;;;;;;30.48;16.15;;;20.00;48.20;;;;;;5057656;28;20024;-48
2021/10/09 11:53:42;;;;;;;22.58;13.57;;;17.90;55.10;;;;;;5076017;28;20412;-48
2021/10/09 11:56:10;;;;;;;26.02;14.05;;;17.50;55.10;;;;;;5076342;28;20023;-52
2021/10/09 11:58:49;;;;;;;28.27;15.13;;;17.10;57.10;;;;;;5076247;28;20035;-50
2021/10/09 12:01:40;;;;;;;26.25;14.15;;;17.10;55.70;;;;;;5076164;28;20502;-48
2021/10/09 12:04:32;;;;;;;22.35;15.38;;;17.00;57.20;;;;;;5076087;28;20499;-47
2021/10/09 12:07:05;;;;;;;21.70;13.05;;;16.90;58.30;;;;;;5072539;28;20036;-49
2021/10/09 12:09:35;;;;;;;22.60;14.27;;;16.80;58.50;;;;;;5075687;28;20417;-48
2021/10/09 12:12:11;;;;;;;19.33;13.32;;;17.00;58.70;;;;;;5075675;28;20020;-48
2021/10/09 12:14:37;;;;;;;26.13;14.07;;;17.30;57.70;;;;;;5075621;28;20024;-51
2021/10/09 12:17:03;;;;;;;25.45;14.10;;;17.30;57.90;;;;;;5075807;28;20025;-49
2021/10/09 12:19:30;;;;;;;21.30;13.15;;;17.10;57.40;;;;;;5075425;28;20035;-48
2021/10/09 12:22:02;;;;;;;23.30;13.93;;;17.50;55.80;;;;;;5075573;28;20037;-50
2021/10/09 12:24:33;;;;;;;26.63;14.77;;;17.50;56.00;;;;;;5075577;28;20024;-48
2021/10/09 12:27:06;;;;;;;24.23;13.75;;;17.10;57.90;;;;;;5057451;28;20090;-50
2021/10/09 12:29:35;;;;;;;30.60;13.25;;;17.30;58.10;;;;;;5075685;28;20107;-50
2021/10/09 12:32:19;;;;;;;21.73;13.82;;;17.30;58.00;;;;;;5076299;28;20099;-48
2021/10/09 12:34:46;;;;;;;20.88;13.05;;;17.10;58.40;;;;;;5075765;28;20028;-49
2021/10/09 12:37:27;;;;;;;18.58;13.38;;;17.10;58.30;;;;;;5075486;28;20025;-48
2021/10/09 12:40:17;;;;;;;19.88;12.48;;;17.00;58.60;;;;;;5075209;28;20020;-51
2021/10/09 12:42:44;;;;;;;;;;;17.20;58.40;;;;;;5075776;28;20099;-47
2021/10/09 12:45:09;;;;;;;25.42;12.45;;;17.30;57.70;;;;;;5075283;28;20388;-47
2021/10/09 12:47:35;;;;;;;25.77;12.85;;;17.30;56.80;;;;;;5075030;28;20075;-52
2021/10/09 12:50:00;;;;;;;28.75;15.05;;;17.30;56.80;;;;;;5075043;28;20024;-49
2021/10/09 12:52:26;;;;;;;19.65;12.55;;;17.70;56.80;;;;;;5074927;28;20420;-48
2021/10/09 12:54:52;;;;;;;21.83;13.93;;;17.50;57.50;;;;;;5075165;28;20067;-48
2021/10/09 12:57:17;;;;;;;27.00;15.32;;;17.50;56.90;;;;;;5074979;28;20017;-49
2021/10/09 12:59:43;;;;;;;16.17;12.07;;;17.40;57.70;;;;;;5074438;28;20073;-48
2021/10/09 13:02:08;;;;;;;23.45;14.05;;;17.50;57.20;;;;;;5056264;28;20035;-50
2021/10/09 13:04:34;;;;;;;19.58;12.20;;;17.60;56.20;;;;;;5074086;28;20062;-53
2021/10/09 13:07:01;;;;;;;26.00;14.85;;;17.70;56.40;;;;;;5074439;28;20114;-48
2021/10/09 13:09:27;;;;;;;27.80;12.82;;;17.80;56.40;;;;;;5074855;28;20027;-50
2021/10/09 13:12:01;;;;;;;20.00;11.35;;;18.00;54.70;;;;;;5074749;28;20021;-51
2021/10/09 13:14:27;;;;;;;17.10;10.93;;;18.00;54.50;;;;;;5075301;28;20051;-52
2021/10/09 13:16:53;;;;;;;21.10;11.73;;;18.00;54.80;;;;;;5074840;28;20017;-48
2021/10/09 13:19:19;;;;;;;20.27;10.95;;;17.80;55.00;;;;;;5075127;28;20388;-50
2021/10/09 13:21:45;;;;;;;21.35;12.38;;;17.70;54.30;;;;;;5074592;28;20028;-51
2021/10/09 13:24:11;;;;;;;19.63;12.27;;;17.80;55.10;;;;;;5074574;28;20024;-49
2021/10/09 13:26:37;;;;;;;20.83;12.48;;;17.70;56.30;;;;;;5074266;28;20032;-48
2021/10/09 13:29:04;;;;;;;21.65;12.13;;;17.70;57.00;;;;;;5074237;28;20033;-47
2021/10/09 13:31:30;;;;;;;22.05;12.30;;;17.70;56.60;;;;;;5074063;28;20389;-49
2021/10/09 13:33:58;;;;;;;22.13;13.45;;;17.50;56.80;;;;;;5074437;28;20457;-48
2021/10/09 13:36:25;;;;;;;20.60;12.18;;;17.60;56.50;;;;;;5074055;28;20055;-47
2021/10/09 13:38:51;;;;;;;15.45;11.13;;;17.50;56.40;;;;;;5074062;28;20522;-51
2021/10/09 13:41:17;;;;;;;23.67;13.65;;;17.30;56.50;;;;;;5073713;28;20190;-49
2021/10/09 13:43:43;;;;;;;20.75;12.13;;;17.40;56.50;;;;;;5073477;28;20588;-53
2021/10/09 13:46:11;;;;;;;21.55;12.07;;;17.60;56.30;;;;;;5075065;28;20029;-51
2021/10/09 13:48:37;;;;;;;20.30;12.30;;;17.60;56.30;;;;;;5074108;28;20028;-48
2021/10/09 13:51:03;;;;;;;19.17;11.30;;;17.70;56.50;;;;;;5056334;28;20470;-48
2021/10/09 13:53:29;;;;;;;25.48;12.55;;;17.70;56.10;;;;;;5055528;28;20031;-50
2021/10/09 13:55:55;;;;;;;21.33;11.07;;;17.50;56.30;;;;;;5073562;28;20039;-50
2021/10/09 13:58:20;;;;;;;18.95;11.85;;;17.30;56.70;;;;;;5073480;28;20016;-48
2021/10/09 14:00:47;;;;;;;25.95;11.75;;;17.30;57.00;;;;;;5073167;28;20040;-52
2021/10/09 14:03:14;;;;;;;29.33;12.30;;;17.30;56.70;;;;;;5073497;28;20047;-49
2021/10/09 14:05:40;;;;;;;20.02;13.32;;;17.30;56.60;;;;;;5073083;28;20090;-47
2021/10/09 14:08:06;;;;;;;20.45;12.25;;;17.30;57.00;;;;;;5073095;28;20389;-49
2021/10/09 14:10:32;;;;;;;24.83;12.38;;;17.30;56.80;;;;;;5073859;28;20437;-48
2021/10/09 14:12:59;;;;;;;22.00;12.63;;;17.40;56.70;;;;;;5073220;28;20025;-49
2021/10/09 14:15:25;;;;;;;18.58;10.98;;;17.50;56.60;;;;;;5073247;28;20020;-49
2021/10/09 14:17:52;;;;;;;23.23;15.32;;;17.50;56.60;;;;;;5073344;28;20488;-48
2021/10/09 14:20:18;;;;;;;22.75;11.13;;;17.50;56.50;;;;;;5072801;28;20025;-49
2021/10/09 14:22:44;;;;;;;26.50;12.75;;;17.50;56.00;;;;;;5072809;28;20027;-48
2021/10/09 14:25:12;;;;;;;28.85;11.93;;;17.40;55.70;;;;;;5072890;28;20088;-51
2021/10/09 14:27:38;;;;;;;21.65;11.30;;;17.30;57.00;;;;;;5072864;28;20029;-50
2021/10/09 14:30:06;;;;;;;17.80;12.32;;;17.50;55.60;;;;;;5055456;28;20019;-49
2021/10/09 14:32:31;;;;;;;22.83;12.02;;;17.50;55.70;;;;;;5072546;28;20025;-51
2021/10/09 14:34:57;;;;;;;25.98;11.32;;;17.50;55.80;;;;;;5072563;28;20467;-50